createdAt,value
2022-09-16T00:00:48.135Z,1.30
2022-09-16T00:03:54.911Z,1.30
2022-09-16T00:09:57.900Z,1.30
2022-09-16T00:12:59.452Z,1.40
2022-09-16T00:16:01.183Z,1.40
2022-09-16T00:19:03.555Z,1.80
2022-09-16T00:22:05.771Z,1.40
2022-09-16T00:25:07.667Z,1.40
2022-09-16T00:28:09.501Z,1.55
2022-09-16T00:31:11.246Z,1.98
2022-09-16T00:34:12.955Z,1.70
2022-09-16T00:37:14.514Z,1.80
2022-09-16T00:40:16.405Z,1.80
2022-09-16T00:43:19.922Z,1.80
2022-09-16T00:46:36.181Z,1.80
2022-09-16T00:49:37.921Z,1.80
2022-09-16T00:52:41.447Z,1.63
2022-09-16T00:55:44.603Z,1.90
2022-09-16T00:58:50.960Z,1.95
2022-09-16T01:01:55.830Z,1.98
2022-09-16T01:04:57.455Z,1.92
2022-09-16T01:07:59.440Z,1.85
2022-09-16T01:11:01.053Z,1.92
2022-09-16T01:14:22.887Z,1.50
2022-09-16T01:17:39.680Z,1.65
2022-09-16T01:21:11.695Z,1.65
2022-09-16T01:24:19.223Z,1.35
2022-09-16T01:27:26.757Z,1.60
2022-09-16T01:30:51.435Z,2.20
2022-09-16T01:34:14.704Z,1.67
2022-09-16T01:37:32.826Z,1.40
2022-09-16T01:40:37.337Z,1.30
2022-09-16T01:44:12.738Z,1.50
2022-09-16T01:47:27.421Z,1.20
2022-09-16T01:50:59.532Z,1.58
2022-09-16T01:54:21.299Z,1.33
2022-09-16T01:57:43.058Z,1.48
2022-09-16T02:00:48.831Z,1.80
2022-09-16T02:03:59.220Z,1.70
2022-09-16T02:07:04.020Z,1.63
2022-09-16T02:10:20.395Z,1.42
2022-09-16T02:13:40.182Z,1.70
2022-09-16T02:17:02.284Z,1.70
2022-09-16T02:20:11.194Z,1.70
2022-09-16T02:23:20.354Z,1.70
2022-09-16T02:26:29.120Z,2.22
2022-09-16T02:29:42.680Z,1.80
2022-09-16T02:32:48.600Z,1.98
2022-09-16T02:35:54.105Z,1.77
2022-09-16T02:39:09.372Z,1.80
2022-09-16T02:42:11.695Z,2.00
2022-09-16T02:45:13.985Z,1.88
2022-09-16T02:48:39.432Z,1.95
2022-09-16T02:52:04.828Z,2.15
2022-09-16T02:55:22.582Z,1.90
2022-09-16T02:58:24.189Z,1.58
2022-09-16T03:01:27.275Z,1.75
2022-09-16T03:04:29.171Z,2.63
2022-09-16T03:07:30.877Z,1.75
2022-09-16T03:10:42.604Z,1.60
2022-09-16T03:14:04.342Z,1.52
2022-09-16T03:17:11.816Z,1.60
2022-09-16T03:20:44.234Z,1.75
2022-09-16T03:23:54.763Z,2.10
2022-09-16T03:27:08.998Z,1.80
2022-09-16T03:30:11.711Z,1.80
2022-09-16T03:33:23.670Z,1.98
2022-09-16T03:36:33.461Z,2.00
2022-09-16T03:39:36.857Z,1.88
2022-09-16T03:42:40.125Z,2.60
2022-09-16T03:45:42.834Z,1.85
2022-09-16T03:48:44.856Z,2.10
2022-09-16T03:51:46.497Z,1.98
2022-09-16T03:54:48.088Z,1.85
2022-09-16T03:57:49.653Z,2.10
2022-09-16T04:00:51.742Z,2.10
2022-09-16T04:03:53.436Z,2.17
2022-09-16T04:06:55.422Z,2.30
2022-09-16T04:09:57.004Z,2.17
2022-09-16T04:12:58.853Z,2.20
2022-09-16T04:16:01.605Z,1.95
2022-09-16T04:19:03.329Z,2.15
2022-09-16T04:22:05.056Z,2.15
2022-09-16T04:25:07.402Z,2.00
2022-09-16T04:28:09.130Z,2.10
2022-09-16T04:31:12.606Z,2.38
2022-09-16T04:34:14.341Z,1.90
2022-09-16T04:37:15.953Z,2.15
2022-09-16T04:40:17.694Z,1.70
2022-09-16T04:43:19.504Z,2.38
2022-09-16T04:46:21.065Z,2.03
2022-09-16T04:49:22.691Z,1.80
2022-09-16T04:52:24.385Z,2.00
2022-09-16T04:55:25.960Z,1.77
2022-09-16T04:58:29.438Z,1.90
2022-09-16T05:01:33.324Z,1.90
2022-09-16T05:04:34.935Z,2.25
2022-09-16T05:07:36.499Z,2.00
2022-09-16T05:10:38.126Z,2.03
2022-09-16T05:13:40.138Z,2.00
2022-09-16T05:16:42.200Z,1.85
2022-09-16T05:19:43.708Z,1.70
2022-09-16T05:22:45.683Z,1.80
2022-09-16T05:25:47.262Z,1.90
2022-09-16T05:28:50.882Z,2.10
2022-09-16T05:31:52.475Z,1.90
2022-09-16T05:34:54.817Z,1.90
2022-09-16T05:37:56.401Z,1.73
2022-09-16T05:41:05.233Z,1.98
2022-09-16T05:44:07.088Z,1.70
2022-09-16T05:47:08.642Z,1.52
2022-09-16T05:50:10.201Z,1.55
2022-09-16T05:53:11.785Z,1.83
2022-09-16T05:56:18.878Z,1.60
2022-09-16T05:59:20.806Z,1.60
2022-09-16T06:02:22.475Z,1.60
2022-09-16T06:05:24.183Z,1.70
2022-09-16T06:08:26.395Z,1.60
2022-09-16T06:11:29.008Z,1.63
2022-09-16T06:14:31.076Z,1.40
2022-09-16T06:17:32.725Z,1.58
2022-09-16T06:20:36.577Z,1.52
2022-09-16T06:23:39.758Z,1.63
2022-09-16T06:26:42.949Z,1.40
2022-09-16T06:29:44.551Z,1.30
2022-09-16T06:32:46.120Z,1.20
2022-09-16T06:35:47.782Z,1.20
2022-09-16T06:38:51.220Z,1.10
2022-09-16T06:41:53.317Z,1.20
2022-09-16T06:45:04.817Z,1.20
2022-09-16T06:48:06.611Z,1.20
2022-09-16T06:51:11.021Z,1.20
2022-09-16T06:54:12.792Z,1.30
2022-09-16T06:57:14.401Z,1.20
2022-09-16T07:00:16.083Z,1.25
2022-09-16T07:03:17.961Z,1.02
2022-09-16T07:06:21.317Z,1.17
2022-09-16T07:09:23.386Z,1.10
2022-09-16T07:12:25.052Z,1.52
2022-09-16T07:15:26.602Z,1.30
2022-09-16T07:18:30.243Z,1.23
2022-09-16T07:21:32.093Z,1.30
2022-09-16T07:24:34.210Z,1.35
2022-09-16T07:27:35.881Z,1.30
2022-09-16T07:30:39.034Z,1.25
2022-09-16T07:33:43.081Z,1.20
2022-09-16T07:36:47.326Z,1.20
2022-09-16T07:39:49.829Z,1.20
2022-09-16T07:42:51.462Z,1.30
2022-09-16T07:45:59.627Z,1.10
2022-09-16T07:49:03.197Z,1.63
2022-09-16T07:52:04.833Z,1.42
2022-09-16T07:55:06.577Z,0.93
2022-09-16T07:58:08.211Z,0.98
2022-09-16T08:01:09.920Z,1.00
2022-09-16T08:04:12.285Z,1.20
2022-09-16T08:07:13.945Z,1.20
2022-09-16T08:10:16.268Z,0.90
2022-09-16T08:13:18.007Z,1.00
2022-09-16T08:16:22.069Z,1.10
2022-09-16T08:19:23.667Z,1.10
2022-09-16T08:22:25.862Z,1.10
2022-09-16T08:25:27.524Z,0.98
2022-09-16T08:28:39.937Z,1.00
2022-09-16T08:31:52.079Z,0.90
2022-09-16T08:34:53.717Z,1.10
2022-09-16T08:37:56.593Z,0.90
2022-09-16T08:41:08.592Z,1.08
2022-09-16T08:44:34.170Z,1.10
2022-09-16T08:48:04.205Z,1.20
2022-09-16T08:51:09.630Z,1.00
2022-09-16T08:54:18.319Z,0.90
2022-09-16T08:57:23.482Z,1.00
2022-09-16T09:00:25.332Z,0.90
2022-09-16T09:03:46.953Z,1.15
2022-09-16T09:06:52.623Z,1.00
2022-09-16T09:10:25.823Z,1.00
2022-09-16T09:13:55.744Z,0.90
2022-09-16T09:17:19.351Z,1.10
2022-09-16T09:20:58.638Z,0.90
2022-09-16T09:24:18.301Z,1.10
2022-09-16T09:27:41.779Z,0.90
2022-09-16T09:30:59.935Z,1.52
2022-09-16T09:34:20.150Z,0.90
2022-09-16T09:37:42.489Z,1.20
2022-09-16T09:40:52.529Z,1.30
2022-09-16T09:44:04.674Z,2.30
2022-09-16T09:47:21.762Z,1.10
2022-09-16T09:53:43.842Z,0.90
2022-09-16T09:56:46.162Z,1.02
2022-09-16T09:59:55.530Z,1.10
2022-09-16T10:03:11.556Z,0.93
2022-09-16T10:06:13.378Z,1.15
2022-09-16T10:09:17.016Z,0.90
2022-09-16T10:12:33.815Z,0.90
2022-09-16T10:15:36.221Z,1.02
2022-09-16T10:18:38.244Z,0.95
2022-09-16T10:21:55.246Z,1.15
2022-09-16T10:28:02.165Z,1.10
2022-09-16T10:31:08.461Z,0.95
2022-09-16T10:34:23.889Z,1.02
2022-09-16T10:37:28.100Z,0.80
2022-09-16T10:40:31.117Z,1.10
2022-09-16T10:43:32.873Z,1.08
2022-09-16T10:46:35.160Z,1.20
2022-09-16T10:49:50.361Z,0.90
2022-09-16T10:52:53.538Z,1.00
2022-09-16T10:56:05.606Z,1.10
2022-09-16T10:59:12.668Z,0.98
2022-09-16T11:02:49.903Z,1.00
2022-09-16T11:06:03.658Z,1.00
2022-09-16T11:09:40.792Z,1.05
2022-09-16T11:13:09.930Z,1.02
2022-09-16T11:16:39.317Z,0.82
2022-09-16T11:19:54.880Z,0.95
2022-09-16T11:23:18.289Z,1.13
2022-09-16T11:27:00.871Z,0.90
2022-09-16T11:30:15.198Z,0.90
2022-09-16T11:33:22.524Z,1.23
2022-09-16T11:36:35.730Z,0.80
2022-09-16T11:39:40.028Z,1.02
2022-09-16T11:42:49.319Z,1.17
2022-09-16T11:46:07.527Z,0.95
2022-09-16T11:49:27.590Z,1.20
2022-09-16T11:52:46.826Z,0.80
2022-09-16T11:56:15.742Z,1.02
2022-09-16T11:59:40.258Z,1.00
2022-09-16T12:03:04.661Z,1.10
2022-09-16T12:06:12.434Z,0.85
2022-09-16T12:09:20.206Z,1.33
2022-09-16T12:12:45.319Z,0.93
2022-09-16T12:15:59.746Z,0.80
2022-09-16T12:19:11.298Z,1.10
2022-09-16T12:22:22.785Z,0.90
2022-09-16T12:25:38.243Z,1.05
2022-09-16T12:28:49.031Z,1.52
2022-09-16T12:31:51.279Z,1.08
2022-09-16T12:35:06.243Z,0.90
2022-09-16T12:38:18.418Z,1.13
2022-09-16T12:41:35.107Z,1.25
2022-09-16T12:44:58.753Z,0.80
2022-09-16T12:48:28.780Z,0.98
2022-09-16T12:51:50.126Z,0.88
2022-09-16T12:55:07.681Z,0.90
2022-09-16T12:58:49.252Z,1.00
2022-09-16T13:01:59.662Z,0.90
2022-09-16T13:05:14.406Z,1.20
2022-09-16T13:08:23.203Z,1.08
2022-09-16T13:12:16.520Z,0.93
2022-09-16T13:14:57.072Z,1.08
2022-09-16T13:18:21.126Z,1.00
2022-09-16T13:21:29.882Z,0.95
2022-09-16T13:24:38.045Z,0.88
2022-09-16T13:27:51.995Z,0.82
2022-09-16T13:30:54.552Z,1.00
2022-09-16T13:33:59.207Z,0.85
2022-09-16T13:37:00.799Z,1.00
2022-09-16T13:40:26.450Z,0.93
2022-09-16T13:43:36.547Z,1.08
2022-09-16T13:46:38.612Z,0.93
2022-09-16T13:49:47.040Z,1.00
2022-09-16T13:52:50.452Z,1.15
2022-09-16T13:55:55.713Z,0.80
2022-09-16T13:59:21.807Z,0.98
2022-09-16T14:02:35.387Z,0.70
2022-09-16T14:06:03.724Z,0.90
2022-09-16T14:09:20.412Z,0.68
2022-09-16T14:12:36.548Z,0.70
2022-09-16T14:15:43.909Z,0.90
2022-09-16T14:18:57.500Z,0.60
2022-09-16T14:22:16.980Z,0.68
2022-09-16T14:25:29.415Z,0.90
2022-09-16T14:28:32.352Z,0.85
2022-09-16T14:31:37.431Z,0.95
2022-09-16T14:34:39.069Z,0.80
2022-09-16T14:37:44.589Z,0.80
2022-09-16T14:40:46.755Z,0.80
2022-09-16T14:43:48.749Z,0.80
2022-09-16T14:47:08.835Z,0.90
2022-09-16T14:50:19.458Z,0.60
2022-09-16T14:53:35.301Z,0.70
2022-09-16T14:56:38.467Z,0.63
2022-09-16T14:59:44.561Z,0.60
2022-09-16T15:02:52.806Z,0.60
2022-09-16T15:05:55.859Z,0.75
2022-09-16T15:09:06.617Z,0.82
2022-09-16T15:12:19.847Z,1.02
2022-09-16T15:15:27.526Z,0.90
2022-09-16T15:18:34.808Z,1.08
2022-09-16T15:21:38.681Z,0.93
2022-09-16T15:24:41.563Z,0.80
2022-09-16T15:27:43.124Z,0.90
2022-09-16T15:30:50.596Z,0.80
2022-09-16T15:33:52.548Z,1.05
2022-09-16T15:36:58.650Z,1.20
2022-09-16T15:40:20.921Z,0.80
2022-09-16T15:43:29.505Z,0.90
2022-09-16T15:46:31.323Z,0.90
2022-09-16T15:49:38.255Z,0.75
2022-09-16T15:52:48.986Z,0.82
2022-09-16T15:56:22.608Z,0.80
2022-09-16T15:59:51.120Z,0.80
2022-09-16T16:02:57.391Z,0.80
2022-09-16T16:05:59.155Z,0.80
2022-09-16T16:09:00.696Z,0.80
2022-09-16T16:12:07.531Z,1.13
2022-09-16T16:15:09.243Z,0.88
2022-09-16T16:18:12.297Z,0.73
2022-09-16T16:21:16.191Z,0.88
2022-09-16T16:24:17.926Z,0.82
2022-09-16T16:27:20.280Z,0.77
2022-09-16T16:30:21.919Z,0.75
2022-09-16T16:33:23.511Z,1.35
2022-09-16T16:36:25.244Z,0.90
2022-09-16T16:39:26.868Z,1.00
2022-09-16T16:42:28.860Z,1.00
2022-09-16T16:45:31.200Z,0.80
2022-09-16T16:48:32.818Z,1.10
2022-09-16T16:51:34.507Z,0.93
2022-09-16T16:54:36.330Z,1.05
2022-09-16T16:57:37.951Z,1.00
2022-09-16T17:00:40.009Z,0.90
2022-09-16T17:03:42.312Z,0.82
2022-09-16T17:06:44.897Z,1.13
2022-09-16T17:09:46.418Z,1.10
2022-09-16T17:12:48.016Z,0.90
2022-09-16T17:15:49.798Z,1.20
2022-09-16T17:18:52.754Z,1.58
2022-09-16T17:21:55.813Z,1.00
2022-09-16T17:24:57.767Z,1.10
2022-09-16T17:27:59.474Z,1.13
2022-09-16T17:31:01.137Z,1.15
2022-09-16T17:34:07.371Z,1.20
2022-09-16T17:37:08.996Z,1.02
2022-09-16T17:40:11.057Z,1.25
2022-09-16T17:43:15.682Z,1.20
2022-09-16T17:46:20.170Z,1.20
2022-09-16T17:49:23.774Z,1.00
2022-09-16T17:52:25.595Z,1.15
2022-09-16T17:55:29.984Z,1.15
2022-09-16T17:58:32.065Z,0.90
2022-09-16T18:06:47.400Z,1.23
2022-09-16T18:10:39.170Z,1.10
2022-09-16T18:18:24.697Z,0.95
2022-09-16T18:30:49.538Z,0.93
2022-09-16T19:00:28.672Z,1.00
2022-09-16T19:04:11.011Z,1.42
2022-09-16T19:11:16.004Z,1.00
2022-09-16T19:32:43.910Z,1.20
2022-09-16T19:39:32.909Z,1.23
2022-09-16T19:43:10.568Z,1.45
2022-09-16T19:50:32.361Z,1.20
2022-09-16T19:53:42.214Z,1.30
2022-09-16T20:00:57.586Z,1.17
2022-09-16T20:04:11.829Z,1.25
2022-09-16T20:07:30.942Z,1.00
2022-09-16T20:10:32.677Z,1.13
2022-09-16T20:14:09.298Z,1.00
2022-09-16T20:34:31.345Z,1.05
2022-09-16T20:37:53.191Z,1.00
2022-09-16T20:45:48.655Z,0.98
2022-09-16T20:49:16.908Z,0.90
2022-09-16T21:03:41.062Z,0.90
2022-09-16T21:11:53.225Z,0.80
2022-09-16T21:15:17.413Z,0.80
2022-09-16T21:18:50.760Z,0.70
2022-09-16T21:22:59.645Z,0.70
2022-09-16T21:29:57.379Z,0.70
2022-09-16T21:38:18.531Z,0.60
2022-09-16T21:41:24.625Z,0.60
2022-09-16T21:44:29.031Z,0.70
2022-09-16T21:47:38.147Z,0.70
2022-09-16T21:59:01.052Z,0.60
2022-09-16T22:02:12.311Z,0.55
2022-09-16T22:06:03.727Z,0.50
2022-09-16T22:09:21.594Z,0.68
2022-09-16T22:12:26.930Z,0.70
2022-09-16T22:15:31.195Z,0.60
2022-09-16T22:18:42.571Z,0.60
2022-09-16T22:22:02.486Z,0.60
2022-09-16T22:25:05.103Z,0.80
2022-09-16T22:28:09.588Z,0.70
2022-09-16T22:31:16.674Z,0.77
2022-09-16T22:34:18.483Z,0.70
2022-09-16T22:37:20.049Z,0.70
2022-09-16T22:40:21.781Z,0.70
2022-09-16T22:43:23.490Z,0.63
2022-09-16T22:46:32.293Z,0.80
2022-09-16T22:49:34.085Z,0.73
2022-09-16T22:52:36.066Z,0.80
2022-09-16T22:55:37.660Z,0.70
2022-09-16T22:58:39.570Z,0.68
2022-09-16T23:01:43.487Z,1.10
2022-09-16T23:04:50.437Z,0.93
2022-09-16T23:08:04.114Z,0.85
2022-09-16T23:11:09.386Z,1.00
2022-09-16T23:14:22.570Z,0.80
2022-09-16T23:17:27.093Z,0.80
2022-09-16T23:20:28.891Z,0.68
2022-09-16T23:23:41.878Z,0.77
2022-09-16T23:26:50.535Z,0.70
2022-09-16T23:29:53.795Z,0.70
2022-09-16T23:32:57.708Z,0.70
2022-09-16T23:35:59.663Z,0.90
2022-09-16T23:39:02.088Z,0.70
2022-09-16T23:42:03.983Z,0.90
2022-09-16T23:45:06.270Z,0.80
2022-09-16T23:48:08.495Z,0.75
2022-09-16T23:51:14.183Z,0.75
2022-09-16T23:54:16.287Z,1.20
2022-09-16T23:57:17.918Z,1.17
